ULX weather

Ulusaba Airport
Ulusaba, Limpopo, South Africa

Public forecast

Using degrees Celsius for public forecast. Weather courtesy of forecast.io.

Closest aviation weather report (METAR) to Ulusaba Airport

Closest report is Hoedspruit Air Force Base Airport, 30.1 nm (55.7 km) NW. Retrieved 2020/01/17 18:00 UTC (20 minutes ago):

FAHS 171800Z AUTO 12001KT //// // ////// 28/22 Q1011

Closest aviation forecast (TAF) to Ulusaba Airport

Forecast is more than 12 hours old.

Closest forecast is Hoedspruit Air Force Base Airport, 30.1 nm (55.7 km) NW. Retrieved 2017/05/23 04:01 UTC (3 years ago):

TAF FAHS 230300Z 2304/2315 VRB02KT CAVOK TX29/2312ZTN12/2304Z